Time;durP1;ratioP1;P1;durP2;ratioP2;P2;SDS_P1;SDS_P2;PMS_P1;PMS_P2;Temp;Humidity;BMP_temperature;BMP_pressure;BME280_temperature;BME280_humidity;BME280_pressure;Samples;Min_cycle;Max_cycle;Signal;HPM_P1;HPM_P2
2021/05/07 00:01:08;;;;;;;5.87;3.62;;;;;;;17.41;56.16;101437.81;1727734;82;21176;-47
2021/05/07 00:03:37;;;;;;;3.12;2.75;;;;;;;17.45;56.11;101434.14;1742227;82;21583;-47
2021/05/07 00:06:06;;;;;;;3.67;3.12;;;;;;;17.43;56.46;101433.34;1741854;82;21185;-47
2021/05/07 00:08:36;;;;;;;4.60;3.20;;;;;;;17.44;56.98;101433.73;1739952;82;21598;-50
2021/05/07 00:11:14;;;;;;;7.60;3.25;;;;;;;17.43;57.01;101432.03;1738965;82;21249;-47
2021/05/07 00:13:43;;;;;;;3.60;2.40;;;;;;;17.44;57.11;101442.94;1738951;82;21156;-48
2021/05/07 00:16:12;;;;;;;7.12;3.15;;;;;;;17.44;57.44;101436.36;1739320;82;21149;-49
2021/05/07 00:18:42;;;;;;;6.40;3.08;;;;;;;17.32;58.16;101435.52;1739154;82;21156;-47
2021/05/07 00:21:10;;;;;;;4.17;2.70;;;;;;;17.33;58.29;101431.13;1733252;82;21177;-48
2021/05/07 00:23:38;;;;;;;6.03;2.95;;;;;;;17.34;58.07;101436.77;1738130;82;21639;-49
2021/05/07 00:26:06;;;;;;;3.40;2.60;;;;;;;17.23;58.30;101431.09;1734443;82;21322;-46
2021/05/07 00:28:35;;;;;;;2.72;2.52;;;;;;;17.38;57.81;101433.10;1739232;82;21172;-49
2021/05/07 00:31:05;;;;;;;6.42;3.15;;;;;;;17.36;57.75;101437.12;1740974;82;21172;-48
2021/05/07 00:33:33;;;;;;;7.45;2.87;;;;;;;17.44;57.33;101440.30;1742403;82;21232;-46
2021/05/07 00:36:01;;;;;;;6.70;3.30;;;;;;;17.43;57.31;101440.37;1741933;82;21192;-48
2021/05/07 00:38:31;;;;;;;4.20;3.35;;;;;;;17.42;57.29;101441.27;1746672;82;21196;-47
2021/05/07 00:40:59;;;;;;;6.72;3.40;;;;;;;17.36;57.40;101445.01;1740399;82;21653;-46
2021/05/07 00:43:26;;;;;;;5.03;3.50;;;;;;;17.35;57.42;101439.81;1741283;82;21230;-51
2021/05/07 00:45:54;;;;;;;4.95;3.45;;;;;;;17.37;57.32;101451.14;1742478;82;21149;-47
2021/05/07 00:48:22;;;;;;;5.40;3.08;;;;;;;17.33;57.41;101451.69;1742132;82;21177;-50
2021/05/07 00:50:50;;;;;;;6.10;3.65;;;;;;;17.32;57.36;101451.30;1728598;82;21193;-51
2021/05/07 00:53:19;;;;;;;4.78;3.62;;;;;;;17.31;57.45;101452.20;1745802;82;21511;-50
2021/05/07 00:55:47;;;;;;;4.28;3.42;;;;;;;17.29;57.60;101447.47;1740622;81;21184;-50
2021/05/07 00:58:15;;;;;;;5.53;3.85;;;;;;;17.29;57.69;101449.27;1740873;82;21172;-47
2021/05/07 01:00:44;;;;;;;4.90;3.72;;;;;;;17.28;57.66;101449.71;1732278;82;21117;-47
2021/05/07 01:03:12;;;;;;;4.92;3.42;;;;;;;17.28;57.58;101446.22;1727412;82;21157;-49
2021/05/07 01:05:41;;;;;;;4.53;3.42;;;;;;;17.26;57.60;101454.17;1725913;82;21137;-47
2021/05/07 01:08:10;;;;;;;5.65;3.12;;;;;;;17.25;57.66;101453.76;1724707;82;21121;-52
2021/05/07 01:10:41;;;;;;;4.67;3.00;;;;;;;17.22;57.70;101449.08;1727825;82;21098;-46
2021/05/07 01:13:09;;;;;;;5.72;3.70;;;;;;;17.19;57.79;101449.22;1715324;82;21157;-51
2021/05/07 01:15:41;;;;;;;6.22;3.58;;;;;;;17.18;57.84;101447.03;1725726;82;21188;-47
2021/05/07 01:18:09;;;;;;;8.53;3.45;;;;;;;17.16;57.91;101452.81;1719651;82;21145;-50
2021/05/07 01:20:38;;;;;;;4.62;3.40;;;;;;;17.15;57.85;101455.47;1724319;82;21153;-49
2021/05/07 01:23:08;;;;;;;8.15;3.12;;;;;;;17.12;57.72;101450.34;1724462;82;21161;-47
2021/05/07 01:25:42;;;;;;;5.35;2.98;;;;;;;17.11;57.70;101454.74;1725713;82;21160;-50
2021/05/07 01:28:13;;;;;;;8.83;3.58;;;;;;;17.10;57.76;101460.94;1720988;82;21153;-47
2021/05/07 01:30:45;;;;;;;6.50;3.20;;;;;;;17.09;57.54;101461.83;1742385;82;21157;-48
2021/05/07 01:33:16;;;;;;;11.93;3.55;;;;;;;17.08;57.06;101466.70;1738650;82;21125;-46
2021/05/07 01:35:46;;;;;;;3.93;2.87;;;;;;;17.05;56.85;101470.75;1715452;82;21137;-48
2021/05/07 01:38:15;;;;;;;8.00;3.58;;;;;;;17.03;56.83;101464.69;1740584;82;21183;-47
2021/05/07 01:40:45;;;;;;;6.47;3.58;;;;;;;16.97;57.07;101460.53;1740233;82;21160;-47
2021/05/07 01:43:15;;;;;;;5.12;3.22;;;;;;;16.92;57.17;101453.70;1742436;82;21591;-47
2021/05/07 01:45:45;;;;;;;6.55;3.62;;;;;;;16.90;57.38;101451.58;1742000;82;21185;-47
2021/05/07 01:48:14;;;;;;;3.95;3.08;;;;;;;16.86;57.62;101448.67;1725871;82;21665;-47
2021/05/07 01:50:45;;;;;;;4.50;3.67;;;;;;;16.87;57.63;101453.03;1738967;82;21157;-49
2021/05/07 01:53:13;;;;;;;4.30;3.62;;;;;;;16.86;57.79;101463.13;1739099;82;21161;-47
2021/05/07 01:55:46;;;;;;;4.28;3.42;;;;;;;16.85;57.91;101466.23;1745641;80;21188;-50
2021/05/07 01:58:17;;;;;;;3.77;3.00;;;;;;;16.83;57.80;101456.23;1729286;82;21213;-47
2021/05/07 02:00:46;;;;;;;5.62;3.10;;;;;;;16.83;57.83;101457.55;1713146;84;21791;-52
2021/05/07 02:03:15;;;;;;;6.12;3.55;;;;;;;16.83;58.12;101461.49;1703970;83;21192;-51
2021/05/07 02:05:52;;;;;;;6.45;4.20;;;;;;;16.86;58.13;101455.24;1808075;79;22379;-44
2021/05/07 02:08:21;;;;;;;7.05;4.40;;;;;;;16.81;58.25;101455.88;1781103;80;21135;-48
2021/05/07 02:10:51;;;;;;;6.12;4.10;;;;;;;16.80;58.51;101456.78;1775164;80;21120;-51
2021/05/07 02:13:19;;;;;;;8.55;4.20;;;;;;;16.78;58.63;101453.34;1774504;80;21289;-50
2021/05/07 02:15:50;;;;;;;7.55;4.60;;;;;;;16.78;58.53;101454.66;1756669;82;21136;-50
2021/05/07 02:18:22;;;;;;;8.58;4.12;;;;;;;16.78;58.56;101452.03;1767523;80;21143;-47
2021/05/07 02:20:54;;;;;;;10.30;4.55;;;;;;;16.77;58.41;101449.02;1772002;80;21139;-49
2021/05/07 02:23:24;;;;;;;11.00;4.45;;;;;;;16.78;58.42;101459.92;1771820;80;21143;-46
2021/05/07 02:25:54;;;;;;;15.18;4.50;;;;;;;16.77;58.13;101467.42;1771941;80;21281;-50
2021/05/07 02:28:33;;;;;;;16.23;5.12;;;;;;;16.78;57.71;101480.95;1818561;77;22918;-49
2021/05/07 02:31:02;;;;;;;12.73;5.53;;;;;;;16.74;57.69;101485.91;1756191;80;21140;-50
2021/05/07 02:33:31;;;;;;;12.47;5.90;;;;;;;16.74;57.78;101480.20;1773577;80;21147;-50
2021/05/07 02:35:59;;;;;;;12.07;5.03;;;;;;;16.75;57.71;101485.02;1774234;80;21557;-48
2021/05/07 02:38:28;;;;;;;13.30;6.03;;;;;;;16.70;57.69;101480.36;1748072;81;21176;-50
2021/05/07 02:40:55;;;;;;;13.08;4.67;;;;;;;16.67;57.61;101491.00;1774856;80;21290;-51
2021/05/07 02:43:24;;;;;;;11.95;5.75;;;;;;;16.65;57.77;101486.25;1752398;81;21148;-48
2021/05/07 02:45:52;;;;;;;13.93;5.40;;;;;;;16.65;57.96;101486.25;1769489;80;21293;-49
2021/05/07 02:48:21;;;;;;;16.50;5.65;;;;;;;16.65;57.97;101485.77;1755411;81;21537;-47
2021/05/07 02:50:48;;;;;;;19.85;7.55;;;;;;;16.65;57.79;101478.38;1728934;81;21183;-49
2021/05/07 02:53:17;;;;;;;21.68;9.10;;;;;;;16.65;57.85;101477.06;1777793;80;21196;-49
2021/05/07 02:55:46;;;;;;;31.62;11.48;;;;;;;16.64;58.05;101485.39;1774337;80;21180;-47
2021/05/07 02:58:14;;;;;;;38.53;13.58;;;;;;;16.65;58.29;101488.88;1756721;81;21161;-50
2021/05/07 03:00:42;;;;;;;31.23;12.03;;;;;;;16.66;58.40;101499.78;1753694;81;21157;-50
2021/05/07 03:03:10;;;;;;;39.65;12.37;;;;;;;16.67;58.53;101504.97;1761533;81;21163;-47
2021/05/07 03:05:38;;;;;;;36.45;11.90;;;;;;;16.67;58.74;101498.88;1759474;81;21731;-49
2021/05/07 03:08:06;;;;;;;35.13;11.45;;;;;;;16.69;58.83;101501.00;1764597;81;21592;-48
2021/05/07 03:10:34;;;;;;;28.87;11.20;;;;;;;16.68;59.04;101501.45;1753658;81;21124;-48
2021/05/07 03:13:03;;;;;;;25.32;10.45;;;;;;;16.70;59.24;101500.07;1756202;81;21160;-49
2021/05/07 03:15:31;;;;;;;41.50;11.97;;;;;;;16.73;59.58;101503.44;1759324;81;21157;-47
2021/05/07 03:17:59;;;;;;;28.92;10.70;;;;;;;16.81;60.19;101498.80;1766466;81;21156;-48
2021/05/07 03:20:27;;;;;;;26.87;10.75;;;;;;;16.98;59.92;101494.25;1758993;81;21191;-49
2021/05/07 03:22:55;;;;;;;21.90;8.55;;;;;;;17.15;59.66;101494.47;1759688;81;21346;-50
2021/05/07 03:25:23;;;;;;;26.40;9.88;;;;;;;17.36;59.36;101491.50;1783744;80;21164;-48
2021/05/07 03:27:51;;;;;;;25.17;9.58;;;;;;;17.65;58.94;101489.50;1744417;81;21596;-51
2021/05/07 03:30:20;;;;;;;28.95;8.23;;;;;;;18.06;58.33;101494.87;1757677;81;21616;-52
2021/05/07 03:32:47;;;;;;;11.33;6.72;;;;;;;18.56;57.30;101485.76;1759479;81;21188;-48
2021/05/07 03:35:15;;;;;;;19.73;6.22;;;;;;;19.11;55.92;101488.98;1755464;81;21596;-45
2021/05/07 03:37:44;;;;;;;11.28;5.37;;;;;;;19.57;54.20;101490.40;1771283;80;21168;-46
2021/05/07 03:40:13;;;;;;;11.05;5.78;;;;;;;19.93;53.06;101489.08;1754358;81;21156;-50
2021/05/07 03:42:44;;;;;;;20.10;6.00;;;;;;;20.25;51.80;101499.84;1770971;80;21116;-49
2021/05/07 03:45:13;;;;;;;14.45;5.30;;;;;;;20.52;50.49;101490.98;1754332;81;21313;-50
2021/05/07 03:47:42;;;;;;;11.03;4.87;;;;;;;20.64;49.58;101494.31;1748483;82;21592;-50
2021/05/07 03:50:11;;;;;;;7.05;3.80;;;;;;;20.63;49.11;101493.91;1740770;81;21176;-51
2021/05/07 03:52:41;;;;;;;7.22;3.90;;;;;;;20.51;49.05;101502.47;1763006;81;21157;-50
2021/05/07 03:55:10;;;;;;;14.10;5.03;;;;;;;20.34;49.41;101497.17;1757808;81;21160;-49
2021/05/07 03:57:38;;;;;;;7.87;4.22;;;;;;;20.13;49.83;101500.38;1766570;81;21148;-49
2021/05/07 04:00:09;;;;;;;8.40;4.70;;;;;;;19.93;50.24;101497.87;1767631;81;21607;-47
2021/05/07 04:02:40;;;;;;;6.95;4.10;;;;;;;19.75;50.55;101497.90;1758768;80;21184;-51
2021/05/07 04:05:10;;;;;;;4.33;3.58;;;;;;;19.57;50.93;101500.09;1762709;81;21159;-50
2021/05/07 04:07:37;;;;;;;7.58;4.78;;;;;;;19.43;51.28;101500.75;1770543;80;21176;-49
2021/05/07 04:10:14;;;;;;;5.55;3.47;;;;;;;19.30;51.78;101499.11;1754442;81;21156;-47
2021/05/07 04:15:13;;;;;;;8.55;4.33;;;;;;;19.09;52.64;101500.08;1761999;81;21315;-48
2021/05/07 04:17:42;;;;;;;7.55;4.40;;;;;;;19.01;53.13;101504.84;1769865;80;21156;-46
2021/05/07 04:20:11;;;;;;;10.88;4.20;;;;;;;18.94;53.71;101500.75;1768744;80;21135;-49
2021/05/07 04:22:38;;;;;;;9.63;4.87;;;;;;;18.90;53.84;101499.17;1757876;81;21164;-48
2021/05/07 04:25:08;;;;;;;8.98;4.85;;;;;;;18.87;54.34;101504.59;1757125;81;21124;-46
2021/05/07 04:27:37;;;;;;;9.98;4.25;;;;;;;18.87;54.47;101501.96;1761381;81;21168;-45
2021/05/07 04:30:06;;;;;;;7.62;5.75;;;;;;;18.88;54.69;101511.57;1751919;80;21192;-46
2021/05/07 04:32:34;;;;;;;8.20;4.65;;;;;;;18.88;54.88;101503.66;1742980;82;21589;-48
2021/05/07 04:35:03;;;;;;;8.53;4.80;;;;;;;18.87;54.87;101503.28;1811251;78;21144;-48
2021/05/07 04:37:31;;;;;;;9.18;4.55;;;;;;;18.86;54.77;101500.23;1805004;79;21279;-49
2021/05/07 04:40:00;;;;;;;10.40;4.45;;;;;;;18.84;54.75;101498.13;1812312;79;21144;-49
2021/05/07 04:42:28;;;;;;;8.58;4.95;;;;;;;18.84;55.10;101495.94;1813470;79;21136;-49
2021/05/07 04:44:56;;;;;;;9.53;5.20;;;;;;;18.84;55.33;101507.36;1806399;79;21140;-47
2021/05/07 04:47:24;;;;;;;6.65;4.33;;;;;;;18.86;55.63;101502.00;1806412;79;21287;-48
2021/05/07 04:49:51;;;;;;;6.53;4.17;;;;;;;18.89;55.87;101506.70;1806856;78;21127;-46
2021/05/07 04:52:19;;;;;;;5.62;4.40;;;;;;;18.92;56.07;101510.51;1813608;79;21151;-46
2021/05/07 04:54:48;;;;;;;8.08;4.03;;;;;;;18.96;56.30;101506.81;1809143;79;21141;-51
2021/05/07 04:57:16;;;;;;;8.73;4.45;;;;;;;19.01;56.52;101502.20;1805725;79;21281;-45
2021/05/07 04:59:44;;;;;;;8.20;4.40;;;;;;;19.08;56.61;101510.22;1805020;78;21141;-48
2021/05/07 05:02:12;;;;;;;7.72;3.62;;;;;;;19.15;56.64;101504.20;1810838;79;21183;-48
2021/05/07 05:04:40;;;;;;;5.83;3.22;;;;;;;19.19;56.67;101506.64;1808609;79;21294;-46
2021/05/07 05:07:09;;;;;;;5.75;3.58;;;;;;;19.23;56.84;101498.98;1806361;79;21159;-47
2021/05/07 05:09:37;;;;;;;5.97;2.92;;;;;;;19.28;56.99;101498.78;1819229;79;21557;-48
2021/05/07 05:12:07;;;;;;;7.72;3.05;;;;;;;19.33;57.21;101496.34;1741189;82;21166;-51
2021/05/07 05:14:34;;;;;;;7.42;3.02;;;;;;;19.40;57.27;101496.47;1726295;83;21176;-45
2021/05/07 05:17:02;;;;;;;7.53;2.60;;;;;;;19.46;57.19;101500.14;1732342;82;21162;-48
2021/05/07 05:19:30;;;;;;;7.10;2.85;;;;;;;19.52;57.13;101498.98;1739647;82;21152;-48
2021/05/07 05:21:59;;;;;;;4.97;2.77;;;;;;;19.59;57.02;101506.16;1749417;81;21625;-46
2021/05/07 05:24:27;;;;;;;5.30;2.52;;;;;;;19.64;56.87;101505.49;1765495;80;21624;-49
2021/05/07 05:26:55;;;;;;;8.18;3.20;;;;;;;19.71;56.82;101510.86;1747521;82;21169;-49
2021/05/07 05:29:26;;;;;;;5.53;2.65;;;;;;;19.86;56.97;101506.17;1773930;80;21564;-45
2021/05/07 05:31:54;;;;;;;6.10;2.75;;;;;;;20.18;56.50;101511.59;1769179;81;21152;-49
2021/05/07 05:34:22;;;;;;;3.47;2.55;;;;;;;20.62;55.62;101505.89;1771558;80;21283;-48
2021/05/07 05:36:50;;;;;;;4.90;2.60;;;;;;;21.08;54.46;101499.09;1770732;80;21605;-50
2021/05/07 05:39:18;;;;;;;12.18;3.12;;;;;;;21.49;53.31;101498.56;1771164;80;21152;-50
2021/05/07 05:41:46;;;;;;;6.08;2.52;;;;;;;21.90;52.25;101505.55;1747660;81;21155;-46
2021/05/07 05:44:14;;;;;;;6.87;2.77;;;;;;;22.31;51.32;101505.34;1772758;80;21152;-46
2021/05/07 05:46:41;;;;;;;9.15;2.92;;;;;;;22.74;50.28;101496.19;1771839;80;21655;-49
2021/05/07 05:49:09;;;;;;;7.17;2.92;;;;;;;23.20;49.28;101503.05;1754343;81;21151;-47
2021/05/07 05:51:38;;;;;;;5.83;2.35;;;;;;;23.69;48.25;101503.02;1776871;80;21273;-49
2021/05/07 05:54:07;;;;;;;4.95;2.60;;;;;;;24.21;47.20;101505.81;1772553;80;21199;-50
2021/05/07 05:56:35;;;;;;;4.33;2.37;;;;;;;24.73;46.00;101513.80;1762660;81;21148;-48
2021/05/07 05:59:03;;;;;;;3.62;2.00;;;;;;;25.15;44.93;101505.50;1769588;80;21152;-49
2021/05/07 06:01:32;;;;;;;6.28;2.42;;;;;;;25.50;43.90;101503.88;1745670;81;21161;-48
2021/05/07 06:04:00;;;;;;;5.47;2.35;;;;;;;26.04;42.35;101524.81;1758795;81;21616;-47
2021/05/07 06:06:29;;;;;;;5.80;2.20;;;;;;;26.04;42.35;101524.81;1765732;81;21190;-47
2021/05/07 06:08:57;;;;;;;3.52;1.95;;;;;;;26.26;41.84;101518.27;1767251;81;21301;-50
2021/05/07 06:11:26;;;;;;;2.83;1.72;;;;;;;26.46;41.22;101527.81;1773800;80;21141;-51
2021/05/07 06:13:54;;;;;;;3.35;1.82;;;;;;;26.67;40.73;101529.33;1760793;81;21557;-49
2021/05/07 06:16:22;;;;;;;3.85;1.72;;;;;;;26.84;40.32;101530.26;1771661;80;21664;-50
2021/05/07 06:18:50;;;;;;;3.70;2.20;;;;;;;27.00;40.00;101530.77;1770588;80;21148;-47
2021/05/07 06:21:18;;;;;;;5.28;2.15;;;;;;;27.14;39.86;101535.05;1775399;80;21282;-49
2021/05/07 06:23:46;;;;;;;2.55;1.60;;;;;;;27.30;39.33;101531.52;1779542;80;21286;-48
2021/05/07 06:26:13;;;;;;;3.90;2.05;;;;;;;27.38;39.10;101527.31;1751443;81;21165;-46
2021/05/07 06:28:42;;;;;;;6.12;2.02;;;;;;;27.47;39.02;101535.56;1741294;81;21151;-50
2021/05/07 06:31:10;;;;;;;4.30;2.20;;;;;;;27.52;38.78;101536.89;1767329;81;21163;-47
2021/05/07 06:33:38;;;;;;;4.00;2.50;;;;;;;27.51;38.67;101538.36;1762453;81;21175;-48
2021/05/07 06:36:06;;;;;;;3.02;1.67;;;;;;;27.42;38.71;101540.41;1769682;81;21178;-48
2021/05/07 06:38:34;;;;;;;6.30;2.10;;;;;;;27.31;38.81;101546.09;1765785;81;21120;-47
2021/05/07 06:41:02;;;;;;;2.62;1.92;;;;;;;27.18;38.90;101537.33;1756018;81;21616;-49
2021/05/07 06:43:31;;;;;;;4.28;2.25;;;;;;;27.08;39.10;101536.36;1770782;80;21136;-47
2021/05/07 06:45:59;;;;;;;3.55;2.10;;;;;;;27.00;39.34;101527.23;1749836;81;21180;-46
2021/05/07 06:48:28;;;;;;;4.85;1.80;;;;;;;26.95;39.53;101522.28;1770429;80;21117;-49
2021/05/07 06:50:57;;;;;;;6.03;2.33;;;;;;;26.99;39.46;101529.08;1760505;81;21156;-50
2021/05/07 06:53:24;;;;;;;4.25;2.00;;;;;;;27.08;39.32;101524.84;1766321;81;21666;-48
2021/05/07 06:55:52;;;;;;;4.28;2.08;;;;;;;27.15;39.30;101520.70;1764132;81;21604;-47
2021/05/07 06:58:22;;;;;;;4.85;1.85;;;;;;;27.26;39.05;101524.25;1756270;81;21640;-48
2021/05/07 07:00:51;;;;;;;5.75;1.80;;;;;;;27.33;38.94;101521.44;1769517;80;21147;-47
2021/05/07 07:03:18;;;;;;;3.87;2.30;;;;;;;27.41;38.74;101524.03;1768664;80;21301;-50
2021/05/07 07:05:48;;;;;;;3.60;1.95;;;;;;;27.45;38.58;101526.82;1781383;80;21548;-52
2021/05/07 07:08:16;;;;;;;2.92;1.72;;;;;;;27.39;38.60;101527.66;1768761;80;21590;-46
2021/05/07 07:10:44;;;;;;;5.45;2.45;;;;;;;27.29;38.67;101533.34;1761509;81;21183;-47
2021/05/07 07:13:12;;;;;;;3.22;2.05;;;;;;;27.15;38.98;101534.06;1759679;81;21168;-48
2021/05/07 07:15:42;;;;;;;6.72;2.33;;;;;;;26.98;39.05;101521.16;1745489;81;21160;-47
2021/05/07 07:18:10;;;;;;;6.17;2.40;;;;;;;26.77;39.45;101523.68;1745301;81;21176;-47
2021/05/07 07:20:38;;;;;;;3.10;1.87;;;;;;;26.54;39.97;101525.41;1759310;81;21179;-49
2021/05/07 07:23:06;;;;;;;4.75;2.60;;;;;;;26.38;40.38;101528.02;1761123;81;21620;-47
2021/05/07 07:25:34;;;;;;;3.65;2.37;;;;;;;26.31;40.56;101533.47;1770508;80;21290;-47
2021/05/07 07:28:07;;;;;;;5.53;2.17;;;;;;;26.35;40.46;101529.59;1757430;81;21140;-46
2021/05/07 07:30:35;;;;;;;8.67;2.43;;;;;;;26.31;40.58;101526.80;1721600;83;21159;-47
2021/05/07 07:33:03;;;;;;;4.85;2.70;;;;;;;26.24;40.60;101529.06;1742702;82;21532;-50
2021/05/07 07:35:31;;;;;;;5.30;2.33;;;;;;;26.11;40.77;101528.77;1733515;83;21179;-49
2021/05/07 07:38:00;;;;;;;4.60;2.40;;;;;;;25.94;41.09;101537.12;1740632;82;21152;-52
2021/05/07 07:40:29;;;;;;;3.62;2.22;;;;;;;25.72;41.40;101537.81;1719736;81;21155;-49
2021/05/07 07:42:56;;;;;;;4.00;2.05;;;;;;;25.28;42.24;101548.98;1740726;82;21152;-51
2021/05/07 07:45:24;;;;;;;4.53;2.42;;;;;;;25.08;42.56;101549.49;1742027;82;21165;-46
2021/05/07 07:47:52;;;;;;;7.00;3.15;;;;;;;25.08;42.56;101549.49;1741283;82;21108;-48
2021/05/07 07:50:20;;;;;;;6.30;2.47;;;;;;;24.91;43.09;101555.16;1720889;81;21508;-46
2021/05/07 07:52:49;;;;;;;5.83;2.42;;;;;;;24.74;43.61;101562.09;1743310;82;21160;-49
2021/05/07 07:55:17;;;;;;;4.92;2.62;;;;;;;24.58;43.97;101565.39;1743388;82;21314;-47
2021/05/07 07:57:45;;;;;;;5.85;2.50;;;;;;;24.46;44.26;101560.89;1733375;83;21147;-46
2021/05/07 08:00:14;;;;;;;2.65;2.00;;;;;;;24.29;44.60;101566.47;1743231;82;21173;-49
2021/05/07 08:02:44;;;;;;;5.35;2.62;;;;;;;24.14;45.07;101553.23;1740913;82;21153;-50
2021/05/07 08:05:13;;;;;;;5.28;2.55;;;;;;;24.02;45.45;101557.98;1719532;81;21150;-48
2021/05/07 08:07:41;;;;;;;4.78;2.30;;;;;;;23.91;45.89;101545.85;1742657;82;21185;-46
2021/05/07 08:10:10;;;;;;;4.75;2.40;;;;;;;23.82;46.20;101549.09;1720263;81;21147;-49
2021/05/07 08:12:38;;;;;;;5.58;3.00;;;;;;;23.76;46.47;101546.83;1746148;82;21168;-49
2021/05/07 08:15:07;;;;;;;6.22;2.50;;;;;;;23.66;46.65;101539.06;1720176;81;21150;-50
2021/05/07 08:17:36;;;;;;;4.72;2.75;;;;;;;23.57;47.11;101538.81;1743669;82;21609;-46
2021/05/07 08:20:08;;;;;;;6.28;2.52;;;;;;;23.52;47.32;101540.42;1722131;83;21175;-50
2021/05/07 08:22:36;;;;;;;4.58;2.92;;;;;;;23.49;47.39;101539.30;1744718;82;21149;-47
2021/05/07 08:25:05;;;;;;;5.53;2.47;;;;;;;23.47;47.52;101539.02;1735999;82;21153;-46
2021/05/07 08:27:32;;;;;;;6.28;2.65;;;;;;;23.44;47.67;101534.27;1744758;82;21149;-49
2021/05/07 08:30:00;;;;;;;4.33;2.40;;;;;;;23.43;47.72;101530.39;1746416;82;21184;-46
2021/05/07 08:32:28;;;;;;;4.78;2.98;;;;;;;23.37;47.92;101531.61;1812124;79;21560;-49
2021/05/07 08:34:56;;;;;;;5.35;2.42;;;;;;;23.34;47.98;101534.94;1812172;79;21163;-49
2021/05/07 08:37:25;;;;;;;8.73;2.70;;;;;;;23.29;48.18;101533.00;1738202;82;21177;-46
2021/05/07 08:39:55;;;;;;;7.03;2.87;;;;;;;23.21;48.39;101530.83;1745739;82;21310;-46
2021/05/07 08:42:24;;;;;;;6.78;2.83;;;;;;;23.13;48.64;101533.58;1817932;79;21156;-46
2021/05/07 08:44:52;;;;;;;4.75;2.35;;;;;;;23.07;48.87;101535.28;1818170;79;21302;-49
2021/05/07 08:47:21;;;;;;;3.02;2.12;;;;;;;23.01;48.94;101538.31;1804995;79;21592;-46
2021/05/07 08:49:51;;;;;;;5.78;2.77;;;;;;;22.93;49.02;101539.25;1811323;79;21131;-46
2021/05/07 08:52:20;;;;;;;5.53;2.62;;;;;;;22.82;49.23;101529.74;1803041;79;21177;-46
2021/05/07 08:54:50;;;;;;;5.78;2.58;;;;;;;22.74;49.36;101535.98;1818580;79;21109;-46
2021/05/07 08:57:18;;;;;;;5.85;2.67;;;;;;;22.60;49.70;101541.66;1806134;79;21538;-49
2021/05/07 08:59:47;;;;;;;5.62;2.58;;;;;;;22.48;50.00;101535.69;1803992;79;21537;-49
2021/05/07 09:02:30;;;;;;;4.97;2.83;;;;;;;22.41;50.25;101539.66;1803734;79;21282;-46
2021/05/07 09:04:58;;;;;;;8.80;2.83;;;;;;;22.30;50.55;101539.42;1810740;79;21554;-48
2021/05/07 09:07:30;;;;;;;6.15;2.72;;;;;;;22.18;50.94;101544.11;1812252;79;21152;-46
2021/05/07 09:10:01;;;;;;;6.00;2.75;;;;;;;22.11;51.21;101548.07;1812603;78;21274;-49
2021/05/07 09:12:35;;;;;;;4.97;2.52;;;;;;;22.00;51.39;101550.46;1804576;79;21105;-49
2021/05/07 09:15:07;;;;;;;5.05;2.58;;;;;;;21.89;51.74;101546.22;1802477;79;21171;-46
2021/05/07 09:17:38;;;;;;;6.58;2.50;;;;;;;21.80;52.10;101545.40;1734272;81;21192;-50
2021/05/07 09:20:13;;;;;;;5.87;2.77;;;;;;;21.73;52.54;101538.72;1736160;81;21306;-49
2021/05/07 09:22:42;;;;;;;6.55;3.02;;;;;;;21.67;53.00;101533.77;1731333;81;21636;-49
2021/05/07 09:25:17;;;;;;;4.25;2.60;;;;;;;21.65;53.65;101532.99;1737862;82;21483;-48
2021/05/07 09:27:45;;;;;;;5.33;3.12;;;;;;;21.62;54.21;101529.17;1732056;82;21337;-46
2021/05/07 09:30:24;;;;;;;7.87;3.00;;;;;;;21.62;54.53;101523.88;1750244;81;21224;-48
2021/05/07 09:32:54;;;;;;;5.55;2.45;;;;;;;21.66;54.23;101516.14;1738292;81;21218;-49
2021/05/07 09:35:28;;;;;;;7.47;2.75;;;;;;;21.67;54.02;101508.59;1745189;81;21179;-50
2021/05/07 09:38:08;;;;;;;6.25;2.52;;;;;;;21.74;54.02;101504.68;1819260;79;23489;-50
2021/05/07 09:40:43;;;;;;;4.80;2.45;;;;;;;21.76;53.87;101502.30;1771605;79;23497;-48
2021/05/07 09:43:15;;;;;;;7.30;3.05;;;;;;;21.76;53.62;101499.66;1739004;82;21160;-48
2021/05/07 09:45:46;;;;;;;7.80;2.92;;;;;;;21.77;53.82;101495.22;1688102;83;21208;-51
2021/05/07 09:48:23;;;;;;;7.95;3.20;;;;;;;21.80;53.78;101492.41;1678686;85;21221;-48
2021/05/07 09:51:03;;;;;;;8.10;3.30;;;;;;;21.81;53.51;101492.35;1680524;84;21342;-46
2021/05/07 09:53:38;;;;;;;6.00;2.60;;;;;;;21.86;53.45;101489.45;1802098;79;22919;-49
2021/05/07 09:56:18;;;;;;;5.25;2.65;;;;;;;21.83;53.47;101493.58;1741593;82;21211;-48
2021/05/07 09:58:47;;;;;;;4.70;2.40;;;;;;;21.86;53.44;101493.42;1745414;81;21617;-47
2021/05/07 10:01:15;;;;;;;8.20;2.70;;;;;;;21.89;53.76;101495.88;1727090;83;21316;-46
2021/05/07 10:03:43;;;;;;;6.78;2.87;;;;;;;21.92;53.92;101483.80;1724802;83;21160;-48
2021/05/07 10:06:11;;;;;;;5.70;2.90;;;;;;;21.98;53.60;101482.12;1739981;82;21169;-46
2021/05/07 10:08:45;;;;;;;5.62;2.25;;;;;;;22.01;53.33;101488.55;1736787;81;21196;-48
2021/05/07 10:11:15;;;;;;;6.08;2.60;;;;;;;22.21;52.60;101482.97;1722296;83;21166;-45
2021/05/07 10:13:45;;;;;;;4.60;2.08;;;;;;;22.30;52.12;101479.77;1722021;83;21155;-45
2021/05/07 10:16:12;;;;;;;5.03;2.50;;;;;;;22.32;51.89;101476.55;1696261;83;21632;-48
2021/05/07 10:18:42;;;;;;;5.53;2.47;;;;;;;22.34;51.63;101474.66;1713297;83;21140;-47
2021/05/07 10:21:14;;;;;;;4.40;2.40;;;;;;;22.36;51.59;101470.62;1750646;81;21170;-48
2021/05/07 10:23:52;;;;;;;9.00;2.70;;;;;;;22.37;51.43;101465.21;1743519;81;21141;-46
2021/05/07 10:26:34;;;;;;;4.08;2.90;;;;;;;22.36;51.29;101462.16;1718177;83;21163;-45
2021/05/07 10:29:04;;;;;;;4.60;2.70;;;;;;;22.34;51.17;101470.68;1714465;83;21310;-46
2021/05/07 10:31:33;;;;;;;8.38;2.67;;;;;;;22.25;51.39;101463.30;1713048;83;21168;-48
2021/05/07 10:34:03;;;;;;;7.08;2.40;;;;;;;22.16;51.61;101460.30;1718991;83;21617;-51
2021/05/07 10:36:46;;;;;;;5.40;2.37;;;;;;;21.95;52.13;101459.75;1740205;81;21176;-48
2021/05/07 10:39:29;;;;;;;5.03;2.42;;;;;;;21.90;52.25;101453.88;1726679;83;21611;-50
2021/05/07 10:41:59;;;;;;;6.17;2.47;;;;;;;21.91;52.34;101456.90;1610725;86;21207;-47
2021/05/07 10:44:28;;;;;;;3.70;2.20;;;;;;;21.91;52.30;101447.63;1645375;85;21188;-47
2021/05/07 10:49:44;;;;;;;4.87;2.40;;;;;;;22.01;52.17;101446.14;1771556;79;22955;-45
2021/05/07 10:52:14;;;;;;;5.12;2.42;;;;;;;22.01;52.12;101447.47;1740760;82;21136;-48
2021/05/07 10:54:48;;;;;;;;;;;;;;;22.05;51.92;101450.32;1737275;82;21140;-45
2021/05/07 10:57:29;;;;;;;8.38;2.72;;;;;;;22.08;51.84;101448.84;1684984;84;20159;-45
2021/05/07 11:00:04;;;;;;;7.92;2.15;;;;;;;22.11;51.73;101444.70;1674428;85;21180;-52
2021/05/07 11:02:51;;;;;;;12.70;3.00;;;;;;;22.14;51.76;101429.92;1673453;85;21178;-46
2021/05/07 11:05:48;;;;;;;7.80;2.70;;;;;;;22.22;51.67;101426.34;1771791;79;23113;-47
2021/05/07 11:08:16;;;;;;;6.55;2.35;;;;;;;22.21;51.50;101435.25;1746703;82;21145;-51
2021/05/07 11:10:48;;;;;;;5.30;2.40;;;;;;;22.26;51.56;101430.98;1734902;82;21120;-48
2021/05/07 11:13:16;;;;;;;5.42;2.35;;;;;;;22.32;51.46;101422.20;1746706;82;21148;-51
2021/05/07 11:16:00;;;;;;;4.70;2.37;;;;;;;22.41;51.26;101420.33;1740989;82;21181;-46
2021/05/07 11:18:32;;;;;;;6.53;3.33;;;;;;;22.49;50.95;101410.11;1741044;82;21160;-49
2021/05/07 11:21:12;;;;;;;7.05;2.27;;;;;;;22.55;50.65;101415.04;1741380;82;21169;-47
2021/05/07 11:23:44;;;;;;;6.65;2.92;;;;;;;22.57;50.46;101414.47;1658466;86;21317;-49
2021/05/07 11:26:11;;;;;;;5.78;2.27;;;;;;;22.57;50.42;101410.49;1683000;83;21236;-50
2021/05/07 11:28:43;;;;;;;4.92;2.37;;;;;;;22.56;50.36;101415.44;1686759;83;21199;-47
2021/05/07 11:31:11;;;;;;;6.25;2.40;;;;;;;22.53;50.35;101412.95;1662472;86;21144;-47
2021/05/07 11:33:43;;;;;;;6.60;2.52;;;;;;;22.53;50.39;101415.60;1691911;83;21140;-51
2021/05/07 11:36:13;;;;;;;5.55;2.08;;;;;;;22.49;50.44;101403.48;1686763;83;21299;-50
2021/05/07 11:38:42;;;;;;;5.20;2.25;;;;;;;22.46;50.62;101411.60;1707019;83;22039;-47
2021/05/07 11:41:26;;;;;;;6.70;2.70;;;;;;;22.43;50.60;101401.20;1658468;86;21287;-47